Nautilus — OUYX2 — position and weather

sailwx.info

Track history (hours):
 
Tides and Currents Weather Stations Pressure Air Temp Water Temp Dewpoint Dewpoint Depression Visibility Wind Speed Wind Dir Waves Ship Positions

Nautilus

Last reported at 2016-May-04 18:31 UTC. Time now 2016-May-04 19:13 UTC.
Position N 54°32' E 018°33'.

Length 120 m; draft 5.1 m.

Type: Ship. MMSI: 219425000.

Date/timePositionNaut miles runAvg speedWind from/ knotsBaromVisibWave heightAir tempDewpointWater temp
2016-May-04 18:31N 54°32' E 018°33'0 0.0
2016-May-04 17:31N 54°32' E 018°33'0 0.0
2016-May-04 16:31N 54°32' E 018°33'0 0.0
2016-May-04 15:31N 54°32' E 018°33'0 0.0
2016-May-04 14:31N 54°32' E 018°33'0 0.0
2016-May-04 13:31N 54°32' E 018°33'0 0.0
2016-May-04 12:31N 54°32' E 018°33'0 0.0
2016-May-04 11:31N 54°32' E 018°33'0 0.0
2016-May-04 10:31N 54°32' E 018°33'0 0.0
2016-May-04 09:31N 54°32' E 018°33'0 0.0
2016-May-04 08:31N 54°32' E 018°33'0 0.0
2016-May-04 07:31N 54°32' E 018°33'0 0.0
2016-May-04 06:31N 54°32' E 018°33'0 0.0
2016-May-04 05:33N 54°32' E 018°33'7 6.9
2016-May-04 04:33N 54°32' E 018°45'8 7.8
2016-May-04 03:33N 54°38' E 018°55'8 8.0
2016-May-04 02:33N 54°45' E 019°01'1010.2
2016-May-04 01:33N 54°51' E 019°14'10 9.7
2016-May-04 00:33N 54°58' E 019°26'1111.3
2016-May-03 23:33N 55°06' E 019°41'1611.2
2016-May-03 22:05N 55°17' E 020°02'262 7.4
2016-May-02 10:32N 59°28' E 022°28'2411.9
2016-May-02 08:33N 59°36' E 023°11'1212.3
2016-May-02 07:33N 59°39' E 023°34'1312.2
2016-May-02 06:31N 59°43' E 023°58'1312.2
2016-May-02 05:28N 59°47' E 024°23'3911.7
2016-May-02 02:11N 60°02' E 025°33'812.0
2016-May-02 01:34N 60°10' E 025°35'51 1.4
2016-Apr-30 14:31N 59°42' E 024°11'1313.6
2016-Apr-30 13:33N 59°38' E 023°47'1313.4
2016-Apr-30 12:33N 59°34' E 023°21'3913.0
2016-Apr-30 09:33N 59°20' E 022°10'1612.5
2016-Apr-30 08:17N 59°18' E 021°39'12712.5
2016-Apr-29 22:08N 58°38' E 017°45'1112.3
2016-Apr-29 21:13N 58°37' E 017°24'812.0
2016-Apr-29 20:33N 58°38' E 017°08'1312.8
2016-Apr-29 19:33N 58°37' E 016°44'1211.9
2016-Apr-29 18:33N 58°38' E 016°21'3 3.4
2016-Apr-29 17:33N 58°37' E 016°15'0 0.0
2016-Apr-29 16:33N 58°37' E 016°15'0 0.0
2016-Apr-29 15:33N 58°37' E 016°15'0 0.0
2016-Apr-29 14:33N 58°37' E 016°15'0 0.0
2016-Apr-29 13:21N 58°37' E 016°15'0 0.0
2016-Apr-29 12:33N 58°37' E 016°15'0 0.0
2016-Apr-29 11:33N 58°37' E 016°15'0 0.0
2016-Apr-29 10:33N 58°37' E 016°15'0 0.0
2016-Apr-29 09:30N 58°37' E 016°15'0 0.1
2016-Apr-29 08:33N 58°37' E 016°15'8 7.6
2016-Apr-29 07:33N 58°39' E 016°29'1211.7
2016-Apr-29 06:33N 58°37' E 016°51'1212.0
2016-Apr-29 05:34N 58°37' E 017°14'151 7.9
2016-Apr-28 10:29N 59°19' E 021°56'1310.9
2016-Apr-28 09:15N 59°27' E 022°18'3212.0
2016-Apr-28 06:33N 59°38' E 023°18'1212.5
2016-Apr-28 05:33N 59°42' E 023°41'1212.1
2016-Apr-28 04:33N 59°45' E 024°05'1612.6
2016-Apr-28 03:17N 59°49' E 024°36'3211.8
2016-Apr-28 00:33N 60°02' E 025°33'1211.9
2016-Apr-27 23:32N 60°14' E 025°35'  
2016-Apr-25 12:29N 59°42' E 024°13'1212.8
2016-Apr-25 11:33N 59°39' E 023°51'1312.9
2016-Apr-25 10:33N 59°35' E 023°26'1412.8
2016-Apr-25 09:28N 59°30' E 023°00'14011.6
2016-Apr-24 21:25N 59°24' E 018°26'6 6.8
2016-Apr-24 20:33N 59°22' E 018°16'  
Track history (hours):
 
Tides and Currents Weather Stations Pressure Air Temp Water Temp Dewpoint Dewpoint Depression Visibility Wind Speed Wind Dir Waves Ship Positions

Nautilus

Last reported at 2016-May-04 18:31 UTC. Time now 2016-May-04 19:13 UTC.
Position N 54°32' E 018°33'.

Length 120 m; draft 5.1 m.

Type: Ship. MMSI: 219425000.

Date/timePositionNaut miles runAvg speedWind from/ knotsBaromVisibWave heightAir tempDewpointWater temp
2016-May-04 18:31N 54°32' E 018°33'0 0.0
2016-May-04 17:31N 54°32' E 018°33'0 0.0
2016-May-04 16:31N 54°32' E 018°33'0 0.0
2016-May-04 15:31N 54°32' E 018°33'0 0.0
2016-May-04 14:31N 54°32' E 018°33'0 0.0
2016-May-04 13:31N 54°32' E 018°33'0 0.0
2016-May-04 12:31N 54°32' E 018°33'0 0.0
2016-May-04 11:31N 54°32' E 018°33'0 0.0
2016-May-04 10:31N 54°32' E 018°33'0 0.0
2016-May-04 09:31N 54°32' E 018°33'0 0.0
2016-May-04 08:31N 54°32' E 018°33'0 0.0
2016-May-04 07:31N 54°32' E 018°33'0 0.0
2016-May-04 06:31N 54°32' E 018°33'0 0.0
2016-May-04 05:33N 54°32' E 018°33'7 6.9
2016-May-04 04:33N 54°32' E 018°45'8 7.8
2016-May-04 03:33N 54°38' E 018°55'8 8.0
2016-May-04 02:33N 54°45' E 019°01'1010.2
2016-May-04 01:33N 54°51' E 019°14'10 9.7
2016-May-04 00:33N 54°58' E 019°26'1111.3
2016-May-03 23:33N 55°06' E 019°41'1611.2
2016-May-03 22:05N 55°17' E 020°02'262 7.4
2016-May-02 10:32N 59°28' E 022°28'2411.9
2016-May-02 08:33N 59°36' E 023°11'1212.3
2016-May-02 07:33N 59°39' E 023°34'1312.2
2016-May-02 06:31N 59°43' E 023°58'1312.2
2016-May-02 05:28N 59°47' E 024°23'3911.7
2016-May-02 02:11N 60°02' E 025°33'812.0
2016-May-02 01:34N 60°10' E 025°35'51 1.4
2016-Apr-30 14:31N 59°42' E 024°11'1313.6
2016-Apr-30 13:33N 59°38' E 023°47'1313.4
2016-Apr-30 12:33N 59°34' E 023°21'3913.0
2016-Apr-30 09:33N 59°20' E 022°10'1612.5
2016-Apr-30 08:17N 59°18' E 021°39'12712.5
2016-Apr-29 22:08N 58°38' E 017°45'1112.3
2016-Apr-29 21:13N 58°37' E 017°24'812.0
2016-Apr-29 20:33N 58°38' E 017°08'1312.8
2016-Apr-29 19:33N 58°37' E 016°44'1211.9
2016-Apr-29 18:33N 58°38' E 016°21'3 3.4
2016-Apr-29 17:33N 58°37' E 016°15'0 0.0
2016-Apr-29 16:33N 58°37' E 016°15'0 0.0
2016-Apr-29 15:33N 58°37' E 016°15'0 0.0
2016-Apr-29 14:33N 58°37' E 016°15'0 0.0
2016-Apr-29 13:21N 58°37' E 016°15'0 0.0
2016-Apr-29 12:33N 58°37' E 016°15'0 0.0
2016-Apr-29 11:33N 58°37' E 016°15'0 0.0
2016-Apr-29 10:33N 58°37' E 016°15'0 0.0
2016-Apr-29 09:30N 58°37' E 016°15'0 0.1
2016-Apr-29 08:33N 58°37' E 016°15'8 7.6
2016-Apr-29 07:33N 58°39' E 016°29'1211.7
2016-Apr-29 06:33N 58°37' E 016°51'1212.0
2016-Apr-29 05:34N 58°37' E 017°14'151 7.9
2016-Apr-28 10:29N 59°19' E 021°56'1310.9
2016-Apr-28 09:15N 59°27' E 022°18'3212.0
2016-Apr-28 06:33N 59°38' E 023°18'1212.5
2016-Apr-28 05:33N 59°42' E 023°41'1212.1
2016-Apr-28 04:33N 59°45' E 024°05'1612.6
2016-Apr-28 03:17N 59°49' E 024°36'3211.8
2016-Apr-28 00:33N 60°02' E 025°33'1211.9
2016-Apr-27 23:32N 60°14' E 025°35'  
2016-Apr-25 12:29N 59°42' E 024°13'1212.8
2016-Apr-25 11:33N 59°39' E 023°51'1312.9
2016-Apr-25 10:33N 59°35' E 023°26'1412.8
2016-Apr-25 09:28N 59°30' E 023°00'14011.6
2016-Apr-24 21:25N 59°24' E 018°26'6 6.8
2016-Apr-24 20:33N 59°22' E 018°16'  

Dump ship's entire track history